sensor_id;sensor_type;location;lat;lon;timestamp;pressure;altitude;pressure_sealevel;temperature;humidity
10897;BME280;5501;51.176;6.470;2023-03-14T00:01:51;98573.94;;;13.07;85.94
10897;BME280;5501;51.176;6.470;2023-03-14T00:06:53;98580.03;;;13.09;85.11
10897;BME280;5501;51.176;6.470;2023-03-14T00:11:55;98587.06;;;13.10;89.89
10897;BME280;5501;51.176;6.470;2023-03-14T00:16:57;98633.34;;;12.59;100.00
10897;BME280;5501;51.176;6.470;2023-03-14T00:21:58;98633.06;;;11.59;100.00
10897;BME280;5501;51.176;6.470;2023-03-14T00:27:00;98631.66;;;11.13;100.00
10897;BME280;5501;51.176;6.470;2023-03-14T00:32:01;98640.19;;;11.04;100.00
10897;BME280;5501;51.176;6.470;2023-03-14T00:37:02;98643.97;;;11.00;100.00
10897;BME280;5501;51.176;6.470;2023-03-14T00:42:04;98641.69;;;10.80;100.00
10897;BME280;5501;51.176;6.470;2023-03-14T00:47:06;98618.53;;;10.68;100.00
10897;BME280;5501;51.176;6.470;2023-03-14T00:52:07;98610.00;;;10.77;100.00
10897;BME280;5501;51.176;6.470;2023-03-14T00:57:09;98606.59;;;10.89;100.00
10897;BME280;5501;51.176;6.470;2023-03-14T01:02:10;98610.00;;;10.77;100.00
10897;BME280;5501;51.176;6.470;2023-03-14T01:07:12;98610.38;;;10.71;100.00
10897;BME280;5501;51.176;6.470;2023-03-14T01:12:13;98605.53;;;10.77;100.00
10897;BME280;5501;51.176;6.470;2023-03-14T01:17:16;98595.78;;;10.78;100.00
10897;BME280;5501;51.176;6.470;2023-03-14T01:22:17;98605.06;;;10.71;100.00
10897;BME280;5501;51.176;6.470;2023-03-14T01:27:19;98581.91;;;10.87;100.00
10897;BME280;5501;51.176;6.470;2023-03-14T01:32:20;98572.41;;;10.83;100.00
10897;BME280;5501;51.176;6.470;2023-03-14T01:37:22;98561.28;;;10.90;100.00
10897;BME280;5501;51.176;6.470;2023-03-14T01:42:24;98569.41;;;11.15;100.00
10897;BME280;5501;51.176;6.470;2023-03-14T01:47:26;98573.88;;;11.15;100.00
10897;BME280;5501;51.176;6.470;2023-03-14T01:52:36;98574.44;;;11.20;100.00
10897;BME280;5501;51.176;6.470;2023-03-14T01:57:50;98564.94;;;11.16;100.00
10897;BME280;5501;51.176;6.470;2023-03-14T02:02:56;98562.19;;;11.17;100.00
10897;BME280;5501;51.176;6.470;2023-03-14T02:08:00;98546.06;;;11.33;100.00
10897;BME280;5501;51.176;6.470;2023-03-14T02:13:07;98550.09;;;11.26;100.00
10897;BME280;5501;51.176;6.470;2023-03-14T02:18:27;98552.34;;;11.32;100.00
10897;BME280;5501;51.176;6.470;2023-03-14T02:24:13;98566.91;;;11.26;100.00
10897;BME280;5501;51.176;6.470;2023-03-14T02:29:23;98564.28;;;11.12;100.00
10897;BME280;5501;51.176;6.470;2023-03-14T02:34:25;98571.16;;;11.29;100.00
10897;BME280;5501;51.176;6.470;2023-03-14T02:39:37;98576.09;;;11.35;100.00
10897;BME280;5501;51.176;6.470;2023-03-14T02:44:57;98561.00;;;11.35;100.00
10897;BME280;5501;51.176;6.470;2023-03-14T02:50:04;98545.03;;;11.35;100.00
10897;BME280;5501;51.176;6.470;2023-03-14T02:55:07;98546.75;;;11.36;100.00
10897;BME280;5501;51.176;6.470;2023-03-14T03:00:12;98546.06;;;11.33;100.00
10897;BME280;5501;51.176;6.470;2023-03-14T03:05:15;98537.81;;;11.37;100.00
10897;BME280;5501;51.176;6.470;2023-03-14T03:10:16;98537.69;;;11.39;100.00
10897;BME280;5501;51.176;6.470;2023-03-14T03:15:18;98541.41;;;11.36;100.00
10897;BME280;5501;51.176;6.470;2023-03-14T03:20:20;98548.53;;;11.36;100.00
10897;BME280;5501;51.176;6.470;2023-03-14T03:25:21;98526.78;;;11.03;100.00
10897;BME280;5501;51.176;6.470;2023-03-14T03:30:24;98531.75;;;10.95;100.00
10897;BME280;5501;51.176;6.470;2023-03-14T03:35:25;98529.03;;;10.82;100.00
10897;BME280;5501;51.176;6.470;2023-03-14T03:40:30;98532.16;;;10.46;100.00
10897;BME280;5501;51.176;6.470;2023-03-14T03:45:32;98525.03;;;10.33;100.00
10897;BME280;5501;51.176;6.470;2023-03-14T03:50:33;98521.06;;;10.40;100.00
10897;BME280;5501;51.176;6.470;2023-03-14T03:55:35;98517.38;;;10.28;100.00
10897;BME280;5501;51.176;6.470;2023-03-14T04:00:36;98518.50;;;10.24;100.00
10897;BME280;5501;51.176;6.470;2023-03-14T04:05:38;98514.91;;;10.11;100.00
10897;BME280;5501;51.176;6.470;2023-03-14T04:10:44;98511.69;;;10.20;100.00
10897;BME280;5501;51.176;6.470;2023-03-14T04:15:56;98512.53;;;10.35;100.00
10897;BME280;5501;51.176;6.470;2023-03-14T04:21:00;98513.41;;;10.35;100.00
10897;BME280;5501;51.176;6.470;2023-03-14T04:26:11;98504.47;;;10.36;100.00
10897;BME280;5501;51.176;6.470;2023-03-14T04:31:16;98502.38;;;10.41;100.00
10897;BME280;5501;51.176;6.470;2023-03-14T04:36:18;98487.78;;;10.48;100.00
10897;BME280;5501;51.176;6.470;2023-03-14T04:41:20;98465.19;;;10.41;100.00
10897;BME280;5501;51.176;6.470;2023-03-14T04:46:22;98458.34;;;10.52;100.00
10897;BME280;5501;51.176;6.470;2023-03-14T04:51:23;98458.63;;;10.47;100.00
10897;BME280;5501;51.176;6.470;2023-03-14T04:56:28;98441.28;;;10.56;100.00
10897;BME280;5501;51.176;6.470;2023-03-14T05:01:30;98438.78;;;10.52;100.00
10897;BME280;5501;51.176;6.470;2023-03-14T05:06:50;98433.75;;;10.48;100.00
10897;BME280;5501;51.176;6.470;2023-03-14T05:12:01;98453.69;;;10.55;100.00
10897;BME280;5501;51.176;6.470;2023-03-14T05:17:20;98448.03;;;10.74;100.00
10897;BME280;5501;51.176;6.470;2023-03-14T05:22:21;98434.22;;;10.69;100.00
10897;BME280;5501;51.176;6.470;2023-03-14T05:27:36;98430.97;;;10.63;100.00
10897;BME280;5501;51.176;6.470;2023-03-14T05:32:53;98425.56;;;10.65;100.00
10897;BME280;5501;51.176;6.470;2023-03-14T05:38:13;98420.91;;;10.69;100.00
10897;BME280;5501;51.176;6.470;2023-03-14T05:43:37;98421.66;;;10.71;100.00
10897;BME280;5501;51.176;6.470;2023-03-14T05:49:02;98421.84;;;10.68;100.00
10897;BME280;5501;51.176;6.470;2023-03-14T05:54:19;98422.63;;;10.70;100.00
10897;BME280;5501;51.176;6.470;2023-03-14T05:59:43;98413.81;;;10.55;100.00
10897;BME280;5501;51.176;6.470;2023-03-14T06:05:02;98413.81;;;10.55;100.00
10897;BME280;5501;51.176;6.470;2023-03-14T06:10:05;98413.81;;;10.55;100.00
10897;BME280;5501;51.176;6.470;2023-03-14T06:15:07;98408.38;;;10.71;100.00
10897;BME280;5501;51.176;6.470;2023-03-14T06:20:09;98411.78;;;10.73;100.00
10897;BME280;5501;51.176;6.470;2023-03-14T06:25:11;98415.97;;;10.77;100.00
10897;BME280;5501;51.176;6.470;2023-03-14T06:30:14;98411.19;;;10.82;100.00
10897;BME280;5501;51.176;6.470;2023-03-14T06:35:16;98413.03;;;10.94;100.00
10897;BME280;5501;51.176;6.470;2023-03-14T06:40:18;98424.41;;;10.96;100.00
10897;BME280;5501;51.176;6.470;2023-03-14T06:45:31;98415.91;;;10.91;100.00
10897;BME280;5501;51.176;6.470;2023-03-14T06:50:35;98428.22;;;10.92;100.00
10897;BME280;5501;51.176;6.470;2023-03-14T06:55:37;98414.19;;;10.90;100.00
10897;BME280;5501;51.176;6.470;2023-03-14T07:00:40;98421.38;;;10.75;100.00
10897;BME280;5501;51.176;6.470;2023-03-14T07:05:42;98427.44;;;10.77;100.00
10897;BME280;5501;51.176;6.470;2023-03-14T07:10:44;98433.97;;;10.86;100.00
10897;BME280;5501;51.176;6.470;2023-03-14T07:15:45;98437.34;;;10.88;100.00
10897;BME280;5501;51.176;6.470;2023-03-14T07:20:48;98452.50;;;11.00;100.00
10897;BME280;5501;51.176;6.470;2023-03-14T07:25:52;98450.00;;;11.11;100.00
10897;BME280;5501;51.176;6.470;2023-03-14T07:30:57;98444.50;;;11.14;100.00
10897;BME280;5501;51.176;6.470;2023-03-14T07:36:05;98447.91;;;11.16;100.00
10897;BME280;5501;51.176;6.470;2023-03-14T07:41:08;98457.09;;;11.37;100.00
10897;BME280;5501;51.176;6.470;2023-03-14T07:46:15;98462.28;;;11.52;100.00
10897;BME280;5501;51.176;6.470;2023-03-14T07:51:18;98465.00;;;11.38;100.00
10897;BME280;5501;51.176;6.470;2023-03-14T07:56:20;98463.09;;;11.53;100.00
10897;BME280;5501;51.176;6.470;2023-03-14T08:01:21;98475.06;;;11.60;100.00
10897;BME280;5501;51.176;6.470;2023-03-14T08:06:23;98477.56;;;11.49;100.00
10897;BME280;5501;51.176;6.470;2023-03-14T08:11:24;98473.19;;;11.62;100.00
10897;BME280;5501;51.176;6.470;2023-03-14T08:16:26;98479.16;;;11.65;100.00
10897;BME280;5501;51.176;6.470;2023-03-14T08:21:27;98483.34;;;11.55;100.00
10897;BME280;5501;51.176;6.470;2023-03-14T08:26:29;98481.41;;;11.45;100.00
10897;BME280;5501;51.176;6.470;2023-03-14T08:31:30;98498.28;;;11.58;100.00
10897;BME280;5501;51.176;6.470;2023-03-14T08:36:32;98505.00;;;11.37;100.00
10897;BME280;5501;51.176;6.470;2023-03-14T08:41:35;98516.31;;;11.40;100.00
10897;BME280;5501;51.176;6.470;2023-03-14T08:46:41;98516.97;;;11.44;100.00
10897;BME280;5501;51.176;6.470;2023-03-14T08:51:43;98532.72;;;11.47;100.00
10897;BME280;5501;51.176;6.470;2023-03-14T08:56:44;98539.75;;;11.48;100.00
10897;BME280;5501;51.176;6.470;2023-03-14T09:01:46;98590.16;;;10.96;100.00
10897;BME280;5501;51.176;6.470;2023-03-14T09:06:47;98619.75;;;10.04;100.00
10897;BME280;5501;51.176;6.470;2023-03-14T09:11:49;98646.03;;;9.48;100.00
10897;BME280;5501;51.176;6.470;2023-03-14T09:16:50;98676.47;;;9.41;100.00
10897;BME280;5501;51.176;6.470;2023-03-14T09:21:52;98676.47;;;9.41;100.00
10897;BME280;5501;51.176;6.470;2023-03-14T09:26:55;98676.47;;;9.41;100.00
10897;BME280;5501;51.176;6.470;2023-03-14T09:31:58;98676.47;;;9.41;100.00
10897;BME280;5501;51.176;6.470;2023-03-14T09:36:59;98743.69;;;9.09;100.00
10897;BME280;5501;51.176;6.470;2023-03-14T09:42:04;98765.47;;;9.31;100.00
10897;BME280;5501;51.176;6.470;2023-03-14T09:47:11;98765.47;;;9.31;100.00
10897;BME280;5501;51.176;6.470;2023-03-14T09:52:27;98765.47;;;9.31;100.00
10897;BME280;5501;51.176;6.470;2023-03-14T09:57:33;98765.47;;;9.31;100.00
10897;BME280;5501;51.176;6.470;2023-03-14T10:02:36;98765.47;;;9.31;100.00
10897;BME280;5501;51.176;6.470;2023-03-14T10:07:39;98863.13;;;9.40;100.00
10897;BME280;5501;51.176;6.470;2023-03-14T10:12:41;98882.81;;;9.19;100.00
10897;BME280;5501;51.176;6.470;2023-03-14T10:17:48;98901.25;;;9.55;100.00
10897;BME280;5501;51.176;6.470;2023-03-14T10:22:50;98928.50;;;9.07;100.00
10897;BME280;5501;51.176;6.470;2023-03-14T10:27:52;98940.44;;;9.16;100.00
10897;BME280;5501;51.176;6.470;2023-03-14T10:32:53;98947.88;;;9.26;100.00
10897;BME280;5501;51.176;6.470;2023-03-14T10:38:02;98963.31;;;9.35;100.00
10897;BME280;5501;51.176;6.470;2023-03-14T10:43:07;98973.78;;;9.88;100.00
10897;BME280;5501;51.176;6.470;2023-03-14T10:53:17;99041.59;;;9.44;100.00
10897;BME280;5501;51.176;6.470;2023-03-14T10:58:31;99041.59;;;9.44;100.00
10897;BME280;5501;51.176;6.470;2023-03-14T11:03:35;99041.59;;;9.44;100.00
10897;BME280;5501;51.176;6.470;2023-03-14T11:14:06;75678.91;;;-140.81;100.00
10897;BME280;5501;51.176;6.470;2023-03-14T11:19:42;57965.28;;;-140.81;100.00
10897;BME280;5501;51.176;6.470;2023-03-14T11:30:27;99041.59;;;9.44;100.00
10897;BME280;5501;51.176;6.470;2023-03-14T11:35:35;99221.56;;;8.57;100.00
10897;BME280;5501;51.176;6.470;2023-03-14T11:45:41;75931.72;;;-140.81;100.00
10897;BME280;5501;51.176;6.470;2023-03-14T11:50:45;99221.56;;;8.57;100.00
10897;BME280;5501;51.176;6.470;2023-03-14T11:55:48;99221.56;;;8.57;100.00
10897;BME280;5501;51.176;6.470;2023-03-14T12:00:54;99221.56;;;8.57;100.00
10897;BME280;5501;51.176;6.470;2023-03-14T12:11:15;99344.50;;;8.53;95.07
10897;BME280;5501;51.176;6.470;2023-03-14T12:21:43;99371.53;;;8.61;89.78
10897;BME280;5501;51.176;6.470;2023-03-14T12:27:37;99375.47;;;9.33;87.53
10897;BME280;5501;51.176;6.470;2023-03-14T12:32:36;99375.47;;;9.33;87.53
10897;BME280;5501;51.176;6.470;2023-03-14T12:37:41;99407.75;;;8.39;93.56
10897;BME280;5501;51.176;6.470;2023-03-14T12:42:57;99430.44;;;9.29;94.44
10897;BME280;5501;51.176;6.470;2023-03-14T12:48:09;99429.13;;;9.39;88.56
10897;BME280;5501;51.176;6.470;2023-03-14T12:58:39;99453.78;;;9.61;85.73
10897;BME280;5501;51.176;6.470;2023-03-14T13:03:50;57965.28;;;-140.81;100.00
10897;BME280;5501;51.176;6.470;2023-03-14T13:08:52;57965.28;;;-140.81;100.00
10897;BME280;5501;51.176;6.470;2023-03-14T13:24:06;75972.50;;;-140.81;85.73
10897;BME280;5501;51.176;6.470;2023-03-14T13:29:29;99453.78;;;9.61;85.73
10897;BME280;5501;51.176;6.470;2023-03-14T13:39:34;75972.50;;;-140.81;85.73
10897;BME280;5501;51.176;6.470;2023-03-14T13:44:38;75972.50;;;-140.81;85.73
10897;BME280;5501;51.176;6.470;2023-03-14T13:49:40;99453.78;;;9.61;85.73
10897;BME280;5501;51.176;6.470;2023-03-14T13:54:42;75972.50;;;-140.81;85.73
10897;BME280;5501;51.176;6.470;2023-03-14T14:04:59;99632.31;;;8.07;88.50
10897;BME280;5501;51.176;6.470;2023-03-14T14:10:01;99632.31;;;8.07;88.50
10897;BME280;5501;51.176;6.470;2023-03-14T14:15:07;99662.88;;;8.41;83.14
10897;BME280;5501;51.176;6.470;2023-03-14T14:20:22;99688.34;;;8.68;81.29
10897;BME280;5501;51.176;6.470;2023-03-14T14:25:23;99692.59;;;8.72;79.52
10897;BME280;5501;51.176;6.470;2023-03-14T14:30:32;99696.25;;;9.82;89.72
10897;BME280;5501;51.176;6.470;2023-03-14T14:35:35;99726.09;;;9.22;75.39
10897;BME280;5501;51.176;6.470;2023-03-14T14:40:43;99732.53;;;9.15;77.83
10897;BME280;5501;51.176;6.470;2023-03-14T14:45:48;99740.16;;;9.01;64.16
10897;BME280;5501;51.176;6.470;2023-03-14T14:50:58;99756.94;;;8.77;54.96
10897;BME280;5501;51.176;6.470;2023-03-14T14:56:24;99764.94;;;8.76;55.86
10897;BME280;5501;51.176;6.470;2023-03-14T15:01:38;99790.84;;;8.92;55.16
10897;BME280;5501;51.176;6.470;2023-03-14T15:06:45;99801.72;;;9.09;55.57
10897;BME280;5501;51.176;6.470;2023-03-14T15:11:48;99820.41;;;9.06;54.36
10897;BME280;5501;51.176;6.470;2023-03-14T15:16:50;99842.38;;;8.85;50.58
10897;BME280;5501;51.176;6.470;2023-03-14T15:21:52;99837.53;;;8.96;52.90
10897;BME280;5501;51.176;6.470;2023-03-14T15:26:54;99859.69;;;8.95;50.05
10897;BME280;5501;51.176;6.470;2023-03-14T15:31:56;99853.94;;;9.07;50.59
10897;BME280;5501;51.176;6.470;2023-03-14T15:36:57;99871.94;;;9.24;50.09
10897;BME280;5501;51.176;6.470;2023-03-14T15:41:59;99892.50;;;9.17;49.75
10897;BME280;5501;51.176;6.470;2023-03-14T15:47:00;99900.22;;;9.23;50.69
10897;BME280;5501;51.176;6.470;2023-03-14T15:52:02;99916.19;;;8.97;47.91
10897;BME280;5501;51.176;6.470;2023-03-14T15:57:04;99915.69;;;8.86;46.47
10897;BME280;5501;51.176;6.470;2023-03-14T16:02:09;99935.34;;;8.79;47.24
10897;BME280;5501;51.176;6.470;2023-03-14T16:07:11;99957.66;;;8.72;45.79
10897;BME280;5501;51.176;6.470;2023-03-14T16:12:12;99970.88;;;8.46;48.36
10897;BME280;5501;51.176;6.470;2023-03-14T16:17:14;99975.19;;;8.50;47.34
10897;BME280;5501;51.176;6.470;2023-03-14T16:22:15;99996.41;;;8.49;47.41
10897;BME280;5501;51.176;6.470;2023-03-14T16:27:17;100006.53;;;8.36;47.89
10897;BME280;5501;51.176;6.470;2023-03-14T16:32:18;100016.94;;;8.42;49.17
10897;BME280;5501;51.176;6.470;2023-03-14T16:37:22;100026.19;;;8.57;48.62
10897;BME280;5501;51.176;6.470;2023-03-14T16:42:24;100037.31;;;8.40;50.26
10897;BME280;5501;51.176;6.470;2023-03-14T16:47:26;100049.00;;;8.33;49.15
10897;BME280;5501;51.176;6.470;2023-03-14T16:52:30;100058.34;;;8.14;49.13
10897;BME280;5501;51.176;6.470;2023-03-14T16:57:32;100080.88;;;8.30;49.54
10897;BME280;5501;51.176;6.470;2023-03-14T17:02:34;100094.97;;;8.00;50.27
10897;BME280;5501;51.176;6.470;2023-03-14T17:07:35;100098.03;;;7.84;50.81
10897;BME280;5501;51.176;6.470;2023-03-14T17:12:37;100119.53;;;7.72;51.35
10897;BME280;5501;51.176;6.470;2023-03-14T17:17:38;100162.31;;;7.55;51.86
10897;BME280;5501;51.176;6.470;2023-03-14T17:22:40;100155.13;;;7.60;53.00
10897;BME280;5501;51.176;6.470;2023-03-14T17:27:41;100167.66;;;7.52;53.69
10897;BME280;5501;51.176;6.470;2023-03-14T17:32:46;100181.47;;;7.28;53.55
10897;BME280;5501;51.176;6.470;2023-03-14T17:37:48;100192.53;;;7.45;54.11
10897;BME280;5501;51.176;6.470;2023-03-14T17:42:50;100212.50;;;7.20;53.24
10897;BME280;5501;51.176;6.470;2023-03-14T17:47:52;100220.41;;;7.22;53.08
10897;BME280;5501;51.176;6.470;2023-03-14T17:52:54;100240.91;;;7.12;52.84
10897;BME280;5501;51.176;6.470;2023-03-14T17:57:56;100254.19;;;7.08;53.31
10897;BME280;5501;51.176;6.470;2023-03-14T18:02:57;100260.63;;;6.96;53.61
10897;BME280;5501;51.176;6.470;2023-03-14T18:07:59;100277.84;;;7.15;54.51
10897;BME280;5501;51.176;6.470;2023-03-14T18:13:01;100290.09;;;7.19;54.66
10897;BME280;5501;51.176;6.470;2023-03-14T18:18:02;100311.69;;;6.98;53.87
10897;BME280;5501;51.176;6.470;2023-03-14T18:23:04;100328.06;;;6.71;53.63
10897;BME280;5501;51.176;6.470;2023-03-14T18:28:07;100326.13;;;6.82;54.51
10897;BME280;5501;51.176;6.470;2023-03-14T18:33:08;100349.81;;;6.85;53.29
10897;BME280;5501;51.176;6.470;2023-03-14T18:38:13;100356.03;;;6.83;53.12
10897;BME280;5501;51.176;6.470;2023-03-14T18:43:14;100365.56;;;6.93;53.30
10897;BME280;5501;51.176;6.470;2023-03-14T18:48:16;100377.09;;;6.87;54.13
10897;BME280;5501;51.176;6.470;2023-03-14T18:53:18;100381.81;;;6.72;52.96
10897;BME280;5501;51.176;6.470;2023-03-14T18:58:19;100381.63;;;6.81;53.78
10897;BME280;5501;51.176;6.470;2023-03-14T19:03:26;100393.91;;;6.83;53.99
10897;BME280;5501;51.176;6.470;2023-03-14T19:08:28;100403.53;;;6.87;55.09
10897;BME280;5501;51.176;6.470;2023-03-14T19:13:31;100412.28;;;6.89;54.88
10897;BME280;5501;51.176;6.470;2023-03-14T19:18:33;100415.94;;;6.84;56.75
10897;BME280;5501;51.176;6.470;2023-03-14T19:23:36;100432.69;;;6.81;56.91
10897;BME280;5501;51.176;6.470;2023-03-14T19:28:38;100440.75;;;6.75;57.29
10897;BME280;5501;51.176;6.470;2023-03-14T19:33:39;100449.56;;;6.74;56.78
10897;BME280;5501;51.176;6.470;2023-03-14T19:38:41;100450.44;;;6.73;57.60
10897;BME280;5501;51.176;6.470;2023-03-14T19:43:42;100466.00;;;6.38;57.83
10897;BME280;5501;51.176;6.470;2023-03-14T19:48:44;100477.94;;;6.63;58.35
10897;BME280;5501;51.176;6.470;2023-03-14T19:53:46;100474.72;;;6.43;59.38
10897;BME280;5501;51.176;6.470;2023-03-14T19:58:47;100479.00;;;6.52;59.08
10897;BME280;5501;51.176;6.470;2023-03-14T20:03:49;100481.56;;;6.56;58.76
10897;BME280;5501;51.176;6.470;2023-03-14T20:08:51;100489.66;;;6.44;59.86
10897;BME280;5501;51.176;6.470;2023-03-14T20:13:52;100496.56;;;6.56;58.99
10897;BME280;5501;51.176;6.470;2023-03-14T20:18:54;100508.09;;;6.50;59.75
10897;BME280;5501;51.176;6.470;2023-03-14T20:23:55;100516.19;;;6.38;60.63
10897;BME280;5501;51.176;6.470;2023-03-14T20:28:57;100521.44;;;6.40;61.21
10897;BME280;5501;51.176;6.470;2023-03-14T20:33:58;100522.47;;;6.28;61.19
10897;BME280;5501;51.176;6.470;2023-03-14T20:39:00;100524.28;;;6.26;63.79
10897;BME280;5501;51.176;6.470;2023-03-14T20:44:02;100517.25;;;6.25;65.57
10897;BME280;5501;51.176;6.470;2023-03-14T20:49:04;100524.28;;;6.26;63.85
10897;BME280;5501;51.176;6.470;2023-03-14T20:54:05;100546.38;;;6.18;62.79
10897;BME280;5501;51.176;6.470;2023-03-14T20:59:09;100536.84;;;6.06;62.66
10897;BME280;5501;51.176;6.470;2023-03-14T21:04:10;100545.56;;;6.14;63.10
10897;BME280;5501;51.176;6.470;2023-03-14T21:09:12;100562.44;;;6.01;64.21
10897;BME280;5501;51.176;6.470;2023-03-14T21:14:14;100561.56;;;6.01;64.11
10897;BME280;5501;51.176;6.470;2023-03-14T21:19:18;100566.91;;;5.96;64.21
10897;BME280;5501;51.176;6.470;2023-03-14T21:24:19;100564.41;;;5.84;65.17
10897;BME280;5501;51.176;6.470;2023-03-14T21:29:21;100552.88;;;5.91;64.38
10897;BME280;5501;51.176;6.470;2023-03-14T21:34:23;100575.84;;;5.80;66.43
10897;BME280;5501;51.176;6.470;2023-03-14T21:39:29;100569.78;;;5.71;65.94
10897;BME280;5501;51.176;6.470;2023-03-14T21:44:30;100575.97;;;5.68;66.46
10897;BME280;5501;51.176;6.470;2023-03-14T21:49:37;100575.13;;;5.64;67.69
10897;BME280;5501;51.176;6.470;2023-03-14T21:54:39;100576.03;;;5.62;68.12
10897;BME280;5501;51.176;6.470;2023-03-14T21:59:44;100582.22;;;5.58;67.78
10897;BME280;5501;51.176;6.470;2023-03-14T22:04:46;100581.25;;;5.68;67.93
10897;BME280;5501;51.176;6.470;2023-03-14T22:09:48;100583.25;;;5.42;69.59
10897;BME280;5501;51.176;6.470;2023-03-14T22:14:49;100586.91;;;5.29;68.93
10897;BME280;5501;51.176;6.470;2023-03-14T22:19:51;100586.91;;;5.29;68.93
10897;BME280;5501;51.176;6.470;2023-03-14T22:24:52;100601.81;;;5.28;70.57
10897;BME280;5501;51.176;6.470;2023-03-14T22:29:54;100601.81;;;5.28;70.57
10897;BME280;5501;51.176;6.470;2023-03-14T22:34:56;100608.16;;;5.11;72.52
10897;BME280;5501;51.176;6.470;2023-03-14T22:44:58;100608.16;;;5.11;72.52
10897;BME280;5501;51.176;6.470;2023-03-14T22:50:00;100608.16;;;5.11;72.52
10897;BME280;5501;51.176;6.470;2023-03-14T22:55:03;100605.53;;;5.06;77.47
10897;BME280;5501;51.176;6.470;2023-03-14T23:00:05;100605.53;;;5.06;77.47
10897;BME280;5501;51.176;6.470;2023-03-14T23:05:12;100605.53;;;5.06;77.47
10897;BME280;5501;51.176;6.470;2023-03-14T23:10:14;57965.28;;;-140.81;nan
10897;BME280;5501;51.176;6.470;2023-03-14T23:15:15;100605.53;;;5.06;77.47
10897;BME280;5501;51.176;6.470;2023-03-14T23:20:17;57965.28;;;-140.81;100.00
10897;BME280;5501;51.176;6.470;2023-03-14T23:35:21;57965.28;;;-140.81;100.00
10897;BME280;5501;51.176;6.470;2023-03-14T23:40:23;77469.50;;;-140.81;77.47
10897;BME280;5501;51.176;6.470;2023-03-14T23:45:24;77469.50;;;-140.81;77.47
10897;BME280;5501;51.176;6.470;2023-03-14T23:50:25;100605.53;;;5.06;77.47
10897;BME280;5501;51.176;6.470;2023-03-14T23:55:27;100605.53;;;5.06;77.47
